sensor_id;sensor_type;location;lat;lon;timestamp;P1;durP1;ratioP1;P2;durP2;ratioP2
70010;SDS011;59543;37.950;-122.338;2022-12-07T00:01:39;3.88;;;1.20;;
70010;SDS011;59543;37.950;-122.338;2022-12-07T00:04:07;5.10;;;0.82;;
70010;SDS011;59543;37.950;-122.338;2022-12-07T00:06:37;4.95;;;0.93;;
70010;SDS011;59543;37.950;-122.338;2022-12-07T00:09:05;2.47;;;0.80;;
70010;SDS011;59543;37.950;-122.338;2022-12-07T00:11:33;8.05;;;0.80;;
70010;SDS011;59543;37.950;-122.338;2022-12-07T00:14:00;3.00;;;0.90;;
70010;SDS011;59543;37.950;-122.338;2022-12-07T00:16:29;3.83;;;0.77;;
70010;SDS011;59543;37.950;-122.338;2022-12-07T00:18:57;4.28;;;1.02;;
70010;SDS011;59543;37.950;-122.338;2022-12-07T00:21:24;4.03;;;0.80;;
70010;SDS011;59543;37.950;-122.338;2022-12-07T00:23:55;4.93;;;1.13;;
70010;SDS011;59543;37.950;-122.338;2022-12-07T00:26:26;2.90;;;0.85;;
70010;SDS011;59543;37.950;-122.338;2022-12-07T00:28:54;3.03;;;1.08;;
70010;SDS011;59543;37.950;-122.338;2022-12-07T00:31:24;3.03;;;1.05;;
70010;SDS011;59543;37.950;-122.338;2022-12-07T00:33:51;2.70;;;1.02;;
70010;SDS011;59543;37.950;-122.338;2022-12-07T00:36:20;5.80;;;1.20;;
70010;SDS011;59543;37.950;-122.338;2022-12-07T00:38:48;3.85;;;1.02;;
70010;SDS011;59543;37.950;-122.338;2022-12-07T00:41:15;7.68;;;1.40;;
70010;SDS011;59543;37.950;-122.338;2022-12-07T00:43:44;6.97;;;1.45;;
70010;SDS011;59543;37.950;-122.338;2022-12-07T00:46:12;5.40;;;1.38;;
70010;SDS011;59543;37.950;-122.338;2022-12-07T00:48:39;3.72;;;1.38;;
70010;SDS011;59543;37.950;-122.338;2022-12-07T00:51:05;4.47;;;1.00;;
70010;SDS011;59543;37.950;-122.338;2022-12-07T00:53:35;6.20;;;1.20;;
70010;SDS011;59543;37.950;-122.338;2022-12-07T00:56:09;3.13;;;1.00;;
70010;SDS011;59543;37.950;-122.338;2022-12-07T00:58:38;4.82;;;1.88;;
70010;SDS011;59543;37.950;-122.338;2022-12-07T01:01:05;2.88;;;1.10;;
70010;SDS011;59543;37.950;-122.338;2022-12-07T01:03:32;3.88;;;1.20;;
70010;SDS011;59543;37.950;-122.338;2022-12-07T01:05:58;4.20;;;1.15;;
70010;SDS011;59543;37.950;-122.338;2022-12-07T01:08:25;3.75;;;1.55;;
70010;SDS011;59543;37.950;-122.338;2022-12-07T01:11:00;5.78;;;1.77;;
70010;SDS011;59543;37.950;-122.338;2022-12-07T01:13:28;5.57;;;1.45;;
70010;SDS011;59543;37.950;-122.338;2022-12-07T01:15:58;8.13;;;1.17;;
70010;SDS011;59543;37.950;-122.338;2022-12-07T01:18:26;4.63;;;1.40;;
70010;SDS011;59543;37.950;-122.338;2022-12-07T01:23:36;4.97;;;1.08;;
70010;SDS011;59543;37.950;-122.338;2022-12-07T01:26:04;3.20;;;1.10;;
70010;SDS011;59543;37.950;-122.338;2022-12-07T01:28:36;5.20;;;1.17;;
70010;SDS011;59543;37.950;-122.338;2022-12-07T01:31:06;7.05;;;1.35;;
70010;SDS011;59543;37.950;-122.338;2022-12-07T01:33:37;4.50;;;1.20;;
70010;SDS011;59543;37.950;-122.338;2022-12-07T01:36:14;4.43;;;1.20;;
70010;SDS011;59543;37.950;-122.338;2022-12-07T01:38:43;3.78;;;1.02;;
70010;SDS011;59543;37.950;-122.338;2022-12-07T01:41:11;4.78;;;1.23;;
70010;SDS011;59543;37.950;-122.338;2022-12-07T01:44:24;8.43;;;1.17;;
70010;SDS011;59543;37.950;-122.338;2022-12-07T01:46:52;7.15;;;1.40;;
70010;SDS011;59543;37.950;-122.338;2022-12-07T01:49:28;9.00;;;1.73;;
70010;SDS011;59543;37.950;-122.338;2022-12-07T01:52:20;9.90;;;2.00;;
70010;SDS011;59543;37.950;-122.338;2022-12-07T01:54:53;9.43;;;2.10;;
70010;SDS011;59543;37.950;-122.338;2022-12-07T01:57:27;7.85;;;2.33;;
70010;SDS011;59543;37.950;-122.338;2022-12-07T01:59:54;9.93;;;1.90;;
70010;SDS011;59543;37.950;-122.338;2022-12-07T02:02:26;4.70;;;1.95;;
70010;SDS011;59543;37.950;-122.338;2022-12-07T02:04:58;7.18;;;1.90;;
70010;SDS011;59543;37.950;-122.338;2022-12-07T02:07:26;6.88;;;1.63;;
70010;SDS011;59543;37.950;-122.338;2022-12-07T02:09:54;7.07;;;2.08;;
70010;SDS011;59543;37.950;-122.338;2022-12-07T02:12:21;6.32;;;1.40;;
70010;SDS011;59543;37.950;-122.338;2022-12-07T02:14:48;6.20;;;1.42;;
70010;SDS011;59543;37.950;-122.338;2022-12-07T02:17:32;5.65;;;1.58;;
70010;SDS011;59543;37.950;-122.338;2022-12-07T02:20:25;5.03;;;1.52;;
70010;SDS011;59543;37.950;-122.338;2022-12-07T02:23:14;4.03;;;1.67;;
70010;SDS011;59543;37.950;-122.338;2022-12-07T02:30:58;5.85;;;1.75;;
70010;SDS011;59543;37.950;-122.338;2022-12-07T02:33:33;9.18;;;1.98;;
70010;SDS011;59543;37.950;-122.338;2022-12-07T02:36:08;6.22;;;2.38;;
70010;SDS011;59543;37.950;-122.338;2022-12-07T02:44:23;9.55;;;3.58;;
70010;SDS011;59543;37.950;-122.338;2022-12-07T02:46:53;5.95;;;2.90;;
70010;SDS011;59543;37.950;-122.338;2022-12-07T02:49:24;6.95;;;2.35;;
70010;SDS011;59543;37.950;-122.338;2022-12-07T02:51:52;8.45;;;3.67;;
70010;SDS011;59543;37.950;-122.338;2022-12-07T02:54:19;11.07;;;3.05;;
70010;SDS011;59543;37.950;-122.338;2022-12-07T03:02:58;7.47;;;2.78;;
70010;SDS011;59543;37.950;-122.338;2022-12-07T03:05:59;6.93;;;2.30;;
70010;SDS011;59543;37.950;-122.338;2022-12-07T03:11:56;6.78;;;2.58;;
70010;SDS011;59543;37.950;-122.338;2022-12-07T03:14:34;6.35;;;2.42;;
70010;SDS011;59543;37.950;-122.338;2022-12-07T03:17:18;8.05;;;2.95;;
70010;SDS011;59543;37.950;-122.338;2022-12-07T03:19:49;10.63;;;3.22;;
70010;SDS011;59543;37.950;-122.338;2022-12-07T03:22:19;6.07;;;2.90;;
70010;SDS011;59543;37.950;-122.338;2022-12-07T03:24:48;7.75;;;3.58;;
70010;SDS011;59543;37.950;-122.338;2022-12-07T03:27:23;12.50;;;4.88;;
70010;SDS011;59543;37.950;-122.338;2022-12-07T03:32:43;11.27;;;4.22;;
70010;SDS011;59543;37.950;-122.338;2022-12-07T03:35:21;11.65;;;3.95;;
70010;SDS011;59543;37.950;-122.338;2022-12-07T03:40:30;8.75;;;3.50;;
70010;SDS011;59543;37.950;-122.338;2022-12-07T03:43:01;8.80;;;3.63;;
70010;SDS011;59543;37.950;-122.338;2022-12-07T03:45:37;10.02;;;4.00;;
70010;SDS011;59543;37.950;-122.338;2022-12-07T03:48:14;12.32;;;4.50;;
70010;SDS011;59543;37.950;-122.338;2022-12-07T03:53:44;14.50;;;5.38;;
70010;SDS011;59543;37.950;-122.338;2022-12-07T03:56:20;16.00;;;5.38;;
70010;SDS011;59543;37.950;-122.338;2022-12-07T03:58:48;9.23;;;4.53;;
70010;SDS011;59543;37.950;-122.338;2022-12-07T04:01:15;12.63;;;5.35;;
70010;SDS011;59543;37.950;-122.338;2022-12-07T04:03:44;12.65;;;4.32;;
70010;SDS011;59543;37.950;-122.338;2022-12-07T04:06:10;14.10;;;4.43;;
70010;SDS011;59543;37.950;-122.338;2022-12-07T04:08:36;16.98;;;4.47;;
70010;SDS011;59543;37.950;-122.338;2022-12-07T04:11:02;11.75;;;4.57;;
70010;SDS011;59543;37.950;-122.338;2022-12-07T04:13:29;15.45;;;4.47;;
70010;SDS011;59543;37.950;-122.338;2022-12-07T04:16:15;10.68;;;3.63;;
70010;SDS011;59543;37.950;-122.338;2022-12-07T04:21:07;8.55;;;3.63;;
70010;SDS011;59543;37.950;-122.338;2022-12-07T04:23:33;8.80;;;3.58;;
70010;SDS011;59543;37.950;-122.338;2022-12-07T04:28:25;8.98;;;2.83;;
70010;SDS011;59543;37.950;-122.338;2022-12-07T04:30:51;8.05;;;3.33;;
70010;SDS011;59543;37.950;-122.338;2022-12-07T04:33:17;8.02;;;3.00;;
70010;SDS011;59543;37.950;-122.338;2022-12-07T04:35:44;12.75;;;3.40;;
70010;SDS011;59543;37.950;-122.338;2022-12-07T04:40:36;12.27;;;4.28;;
70010;SDS011;59543;37.950;-122.338;2022-12-07T04:43:02;10.65;;;4.30;;
70010;SDS011;59543;37.950;-122.338;2022-12-07T04:45:30;13.38;;;4.45;;
70010;SDS011;59543;37.950;-122.338;2022-12-07T04:47:56;7.70;;;3.72;;
70010;SDS011;59543;37.950;-122.338;2022-12-07T04:52:48;11.23;;;3.67;;
70010;SDS011;59543;37.950;-122.338;2022-12-07T04:55:14;9.95;;;4.40;;
70010;SDS011;59543;37.950;-122.338;2022-12-07T04:57:40;10.05;;;4.75;;
70010;SDS011;59543;37.950;-122.338;2022-12-07T05:02:33;7.38;;;3.53;;
70010;SDS011;59543;37.950;-122.338;2022-12-07T05:04:59;11.43;;;4.30;;
70010;SDS011;59543;37.950;-122.338;2022-12-07T05:09:51;10.90;;;3.97;;
70010;SDS011;59543;37.950;-122.338;2022-12-07T05:12:17;15.90;;;5.07;;
70010;SDS011;59543;37.950;-122.338;2022-12-07T05:14:43;12.43;;;6.32;;
70010;SDS011;59543;37.950;-122.338;2022-12-07T05:17:10;11.55;;;4.60;;
70010;SDS011;59543;37.950;-122.338;2022-12-07T05:19:36;9.85;;;4.25;;
70010;SDS011;59543;37.950;-122.338;2022-12-07T05:22:03;15.05;;;4.47;;
70010;SDS011;59543;37.950;-122.338;2022-12-07T05:26:55;5.70;;;3.08;;
70010;SDS011;59543;37.950;-122.338;2022-12-07T05:29:21;10.05;;;3.10;;
70010;SDS011;59543;37.950;-122.338;2022-12-07T05:31:47;6.28;;;3.35;;
70010;SDS011;59543;37.950;-122.338;2022-12-07T05:36:39;9.43;;;3.00;;
70010;SDS011;59543;37.950;-122.338;2022-12-07T05:39:06;6.15;;;2.83;;
70010;SDS011;59543;37.950;-122.338;2022-12-07T05:41:32;8.07;;;2.50;;
70010;SDS011;59543;37.950;-122.338;2022-12-07T05:44:17;5.53;;;2.60;;
70010;SDS011;59543;37.950;-122.338;2022-12-07T05:46:43;11.55;;;3.22;;
70010;SDS011;59543;37.950;-122.338;2022-12-07T05:49:09;5.40;;;2.70;;
70010;SDS011;59543;37.950;-122.338;2022-12-07T05:51:35;10.15;;;3.08;;
70010;SDS011;59543;37.950;-122.338;2022-12-07T05:54:02;5.10;;;3.13;;
70010;SDS011;59543;37.950;-122.338;2022-12-07T05:56:28;15.25;;;3.30;;
70010;SDS011;59543;37.950;-122.338;2022-12-07T05:58:54;6.40;;;3.10;;
70010;SDS011;59543;37.950;-122.338;2022-12-07T06:01:39;6.15;;;2.83;;
70010;SDS011;59543;37.950;-122.338;2022-12-07T06:04:05;8.00;;;3.00;;
70010;SDS011;59543;37.950;-122.338;2022-12-07T06:08:57;9.07;;;3.00;;
70010;SDS011;59543;37.950;-122.338;2022-12-07T06:11:24;8.77;;;3.38;;
70010;SDS011;59543;37.950;-122.338;2022-12-07T06:14:08;6.80;;;2.70;;
70010;SDS011;59543;37.950;-122.338;2022-12-07T06:19:00;8.95;;;3.40;;
70010;SDS011;59543;37.950;-122.338;2022-12-07T06:21:26;7.97;;;3.20;;
70010;SDS011;59543;37.950;-122.338;2022-12-07T06:23:53;8.38;;;3.72;;
70010;SDS011;59543;37.950;-122.338;2022-12-07T06:26:19;9.00;;;3.72;;
70010;SDS011;59543;37.950;-122.338;2022-12-07T06:31:11;10.10;;;3.58;;
70010;SDS011;59543;37.950;-122.338;2022-12-07T06:33:37;11.35;;;3.58;;
70010;SDS011;59543;37.950;-122.338;2022-12-07T06:38:29;8.20;;;3.13;;
70010;SDS011;59543;37.950;-122.338;2022-12-07T06:40:55;6.53;;;3.17;;
70010;SDS011;59543;37.950;-122.338;2022-12-07T06:43:22;10.15;;;3.17;;
70010;SDS011;59543;37.950;-122.338;2022-12-07T06:45:48;6.28;;;2.97;;
70010;SDS011;59543;37.950;-122.338;2022-12-07T06:50:40;6.60;;;3.00;;
70010;SDS011;59543;37.950;-122.338;2022-12-07T06:53:07;5.93;;;2.85;;
70010;SDS011;59543;37.950;-122.338;2022-12-07T06:55:34;5.35;;;2.47;;
70010;SDS011;59543;37.950;-122.338;2022-12-07T07:00:27;5.35;;;2.88;;
70010;SDS011;59543;37.950;-122.338;2022-12-07T07:02:54;11.13;;;3.22;;
70010;SDS011;59543;37.950;-122.338;2022-12-07T07:07:48;10.20;;;2.93;;
70010;SDS011;59543;37.950;-122.338;2022-12-07T07:10:14;8.95;;;3.10;;
70010;SDS011;59543;37.950;-122.338;2022-12-07T07:12:41;7.38;;;2.95;;
70010;SDS011;59543;37.950;-122.338;2022-12-07T07:17:33;6.20;;;2.67;;
70010;SDS011;59543;37.950;-122.338;2022-12-07T07:22:25;7.13;;;2.58;;
70010;SDS011;59543;37.950;-122.338;2022-12-07T07:24:51;7.15;;;3.08;;
70010;SDS011;59543;37.950;-122.338;2022-12-07T07:27:17;4.88;;;2.83;;
70010;SDS011;59543;37.950;-122.338;2022-12-07T07:32:09;10.30;;;3.38;;
70010;SDS011;59543;37.950;-122.338;2022-12-07T07:37:02;8.77;;;2.92;;
70010;SDS011;59543;37.950;-122.338;2022-12-07T07:41:54;5.65;;;2.58;;
70010;SDS011;59543;37.950;-122.338;2022-12-07T07:46:46;7.47;;;2.83;;
70010;SDS011;59543;37.950;-122.338;2022-12-07T07:49:12;5.53;;;2.45;;
70010;SDS011;59543;37.950;-122.338;2022-12-07T07:51:38;6.28;;;2.20;;
70010;SDS011;59543;37.950;-122.338;2022-12-07T07:54:05;5.82;;;1.95;;
70010;SDS011;59543;37.950;-122.338;2022-12-07T07:56:31;5.35;;;1.95;;
70010;SDS011;59543;37.950;-122.338;2022-12-07T08:01:23;4.78;;;1.90;;
70010;SDS011;59543;37.950;-122.338;2022-12-07T08:03:49;2.67;;;1.70;;
70010;SDS011;59543;37.950;-122.338;2022-12-07T08:08:41;5.28;;;1.13;;
70010;SDS011;59543;37.950;-122.338;2022-12-07T08:13:35;4.40;;;1.30;;
70010;SDS011;59543;37.950;-122.338;2022-12-07T08:16:05;5.80;;;1.17;;
70010;SDS011;59543;37.950;-122.338;2022-12-07T08:18:37;6.43;;;1.30;;
70010;SDS011;59543;37.950;-122.338;2022-12-07T08:21:05;6.45;;;1.48;;
70010;SDS011;59543;37.950;-122.338;2022-12-07T08:23:32;8.25;;;1.60;;
70010;SDS011;59543;37.950;-122.338;2022-12-07T08:26:02;9.23;;;1.30;;
70010;SDS011;59543;37.950;-122.338;2022-12-07T08:28:30;7.57;;;1.48;;
70010;SDS011;59543;37.950;-122.338;2022-12-07T08:31:12;7.15;;;1.40;;
70010;SDS011;59543;37.950;-122.338;2022-12-07T08:33:41;4.40;;;1.38;;
70010;SDS011;59543;37.950;-122.338;2022-12-07T08:36:09;3.72;;;1.58;;
70010;SDS011;59543;37.950;-122.338;2022-12-07T08:38:37;11.80;;;1.67;;
70010;SDS011;59543;37.950;-122.338;2022-12-07T08:41:05;6.43;;;1.33;;
70010;SDS011;59543;37.950;-122.338;2022-12-07T08:43:32;6.32;;;1.60;;
70010;SDS011;59543;37.950;-122.338;2022-12-07T08:46:05;5.53;;;1.45;;
70010;SDS011;59543;37.950;-122.338;2022-12-07T08:48:56;8.15;;;1.35;;
70010;SDS011;59543;37.950;-122.338;2022-12-07T08:51:27;4.15;;;1.10;;
70010;SDS011;59543;37.950;-122.338;2022-12-07T08:53:54;2.85;;;1.20;;
70010;SDS011;59543;37.950;-122.338;2022-12-07T08:56:22;3.13;;;1.15;;
70010;SDS011;59543;37.950;-122.338;2022-12-07T08:58:48;4.50;;;1.30;;
70010;SDS011;59543;37.950;-122.338;2022-12-07T09:01:14;4.93;;;1.40;;
70010;SDS011;59543;37.950;-122.338;2022-12-07T09:03:41;4.22;;;1.55;;
70010;SDS011;59543;37.950;-122.338;2022-12-07T09:08:34;6.55;;;1.30;;
70010;SDS011;59543;37.950;-122.338;2022-12-07T09:11:04;3.72;;;1.20;;
70010;SDS011;59543;37.950;-122.338;2022-12-07T09:13:30;10.05;;;1.30;;
70010;SDS011;59543;37.950;-122.338;2022-12-07T09:18:22;9.35;;;1.08;;
70010;SDS011;59543;37.950;-122.338;2022-12-07T09:20:50;4.28;;;1.10;;
70010;SDS011;59543;37.950;-122.338;2022-12-07T09:23:16;7.07;;;1.73;;
70010;SDS011;59543;37.950;-122.338;2022-12-07T09:25:43;2.90;;;1.27;;
70010;SDS011;59543;37.950;-122.338;2022-12-07T09:28:09;4.75;;;1.33;;
70010;SDS011;59543;37.950;-122.338;2022-12-07T09:33:01;7.45;;;2.33;;
70010;SDS011;59543;37.950;-122.338;2022-12-07T09:37:53;3.22;;;2.00;;
70010;SDS011;59543;37.950;-122.338;2022-12-07T09:42:47;9.98;;;2.50;;
70010;SDS011;59543;37.950;-122.338;2022-12-07T09:45:21;4.50;;;2.22;;
70010;SDS011;59543;37.950;-122.338;2022-12-07T09:47:50;6.57;;;2.60;;
70010;SDS011;59543;37.950;-122.338;2022-12-07T09:50:21;9.77;;;2.35;;
70010;SDS011;59543;37.950;-122.338;2022-12-07T09:52:50;10.07;;;2.38;;
70010;SDS011;59543;37.950;-122.338;2022-12-07T09:55:29;6.35;;;2.42;;
70010;SDS011;59543;37.950;-122.338;2022-12-07T09:57:57;7.88;;;2.53;;
70010;SDS011;59543;37.950;-122.338;2022-12-07T10:00:24;8.40;;;2.53;;
70010;SDS011;59543;37.950;-122.338;2022-12-07T10:05:26;6.05;;;2.80;;
70010;SDS011;59543;37.950;-122.338;2022-12-07T10:08:00;4.90;;;2.72;;
70010;SDS011;59543;37.950;-122.338;2022-12-07T10:10:29;5.72;;;2.50;;
70010;SDS011;59543;37.950;-122.338;2022-12-07T10:12:58;6.88;;;2.50;;
70010;SDS011;59543;37.950;-122.338;2022-12-07T10:15:49;6.50;;;2.50;;
70010;SDS011;59543;37.950;-122.338;2022-12-07T10:21:13;5.05;;;2.42;;
70010;SDS011;59543;37.950;-122.338;2022-12-07T10:23:40;8.02;;;2.25;;
70010;SDS011;59543;37.950;-122.338;2022-12-07T10:31:45;4.47;;;2.30;;
70010;SDS011;59543;37.950;-122.338;2022-12-07T10:34:23;6.70;;;2.45;;
70010;SDS011;59543;37.950;-122.338;2022-12-07T10:39:22;7.38;;;2.47;;
70010;SDS011;59543;37.950;-122.338;2022-12-07T10:41:59;7.93;;;2.50;;
70010;SDS011;59543;37.950;-122.338;2022-12-07T10:44:28;8.88;;;2.53;;
70010;SDS011;59543;37.950;-122.338;2022-12-07T10:50:04;4.53;;;2.33;;
70010;SDS011;59543;37.950;-122.338;2022-12-07T10:52:45;5.40;;;2.30;;
70010;SDS011;59543;37.950;-122.338;2022-12-07T10:55:41;6.82;;;2.08;;
70010;SDS011;59543;37.950;-122.338;2022-12-07T11:01:24;8.50;;;2.13;;
70010;SDS011;59543;37.950;-122.338;2022-12-07T11:04:01;7.60;;;2.13;;
70010;SDS011;59543;37.950;-122.338;2022-12-07T11:15:09;5.53;;;2.28;;
70010;SDS011;59543;37.950;-122.338;2022-12-07T11:18:06;3.08;;;1.70;;
70010;SDS011;59543;37.950;-122.338;2022-12-07T11:23:13;4.63;;;2.38;;
70010;SDS011;59543;37.950;-122.338;2022-12-07T11:26:09;6.40;;;2.50;;
70010;SDS011;59543;37.950;-122.338;2022-12-07T11:29:32;5.30;;;2.58;;
70010;SDS011;59543;37.950;-122.338;2022-12-07T11:34:48;6.72;;;2.00;;
70010;SDS011;59543;37.950;-122.338;2022-12-07T11:37:33;12.98;;;2.42;;
70010;SDS011;59543;37.950;-122.338;2022-12-07T11:40:05;6.03;;;2.08;;
70010;SDS011;59543;37.950;-122.338;2022-12-07T11:43:31;7.65;;;2.33;;
70010;SDS011;59543;37.950;-122.338;2022-12-07T11:45:35;8.10;;;1.90;;
70010;SDS011;59543;37.950;-122.338;2022-12-07T11:51:08;4.65;;;1.77;;
70010;SDS011;59543;37.950;-122.338;2022-12-07T11:53:42;3.00;;;1.80;;
70010;SDS011;59543;37.950;-122.338;2022-12-07T11:56:16;4.63;;;1.60;;
70010;SDS011;59543;37.950;-122.338;2022-12-07T12:06:37;5.30;;;2.00;;
70010;SDS011;59543;37.950;-122.338;2022-12-07T12:20:19;6.00;;;2.00;;
70010;SDS011;59543;37.950;-122.338;2022-12-07T12:25:50;4.88;;;2.10;;
70010;SDS011;59543;37.950;-122.338;2022-12-07T12:28:28;5.22;;;2.53;;
70010;SDS011;59543;37.950;-122.338;2022-12-07T12:31:09;3.65;;;2.30;;
70010;SDS011;59543;37.950;-122.338;2022-12-07T12:33:53;8.52;;;2.53;;
70010;SDS011;59543;37.950;-122.338;2022-12-07T12:46:58;4.78;;;2.65;;
70010;SDS011;59543;37.950;-122.338;2022-12-07T13:00:00;7.00;;;3.13;;
70010;SDS011;59543;37.950;-122.338;2022-12-07T13:15:40;6.25;;;2.35;;
70010;SDS011;59543;37.950;-122.338;2022-12-07T13:20:55;9.52;;;2.53;;
70010;SDS011;59543;37.950;-122.338;2022-12-07T13:26:20;3.85;;;2.30;;
70010;SDS011;59543;37.950;-122.338;2022-12-07T13:31:50;6.10;;;2.17;;
70010;SDS011;59543;37.950;-122.338;2022-12-07T13:34:33;8.82;;;2.00;;
70010;SDS011;59543;37.950;-122.338;2022-12-07T13:37:26;8.63;;;1.55;;
70010;SDS011;59543;37.950;-122.338;2022-12-07T13:39:55;3.30;;;1.58;;
70010;SDS011;59543;37.950;-122.338;2022-12-07T13:44:55;4.28;;;1.27;;
70010;SDS011;59543;37.950;-122.338;2022-12-07T13:47:31;1.95;;;0.90;;
70010;SDS011;59543;37.950;-122.338;2022-12-07T13:50:24;6.68;;;1.30;;
70010;SDS011;59543;37.950;-122.338;2022-12-07T13:52:56;4.53;;;1.05;;
70010;SDS011;59543;37.950;-122.338;2022-12-07T13:55:24;6.03;;;1.10;;
70010;SDS011;59543;37.950;-122.338;2022-12-07T13:57:52;5.38;;;1.17;;
70010;SDS011;59543;37.950;-122.338;2022-12-07T14:00:23;2.05;;;1.13;;
70010;SDS011;59543;37.950;-122.338;2022-12-07T14:05:25;3.42;;;0.98;;
70010;SDS011;59543;37.950;-122.338;2022-12-07T14:15:57;4.03;;;1.30;;
70010;SDS011;59543;37.950;-122.338;2022-12-07T14:18:38;4.30;;;1.30;;
70010;SDS011;59543;37.950;-122.338;2022-12-07T14:23:35;4.35;;;1.45;;
70010;SDS011;59543;37.950;-122.338;2022-12-07T14:26:07;3.67;;;1.40;;
70010;SDS011;59543;37.950;-122.338;2022-12-07T14:28:42;3.00;;;1.17;;
70010;SDS011;59543;37.950;-122.338;2022-12-07T14:31:18;9.10;;;5.20;;
70010;SDS011;59543;37.950;-122.338;2022-12-07T14:33:50;8.90;;;5.00;;
70010;SDS011;59543;37.950;-122.338;2022-12-07T14:38:42;5.30;;;4.30;;
70010;SDS011;59543;37.950;-122.338;2022-12-07T14:44:01;2.28;;;1.00;;
70010;SDS011;59543;37.950;-122.338;2022-12-07T14:46:33;8.77;;;3.58;;
70010;SDS011;59543;37.950;-122.338;2022-12-07T14:51:25;3.45;;;2.30;;
70010;SDS011;59543;37.950;-122.338;2022-12-07T14:56:18;4.97;;;2.15;;
70010;SDS011;59543;37.950;-122.338;2022-12-07T15:01:13;0.55;;;0.40;;
70010;SDS011;59543;37.950;-122.338;2022-12-07T15:03:39;7.82;;;1.90;;
70010;SDS011;59543;37.950;-122.338;2022-12-07T15:08:32;7.78;;;1.80;;
70010;SDS011;59543;37.950;-122.338;2022-12-07T15:10:59;3.45;;;1.75;;
70010;SDS011;59543;37.950;-122.338;2022-12-07T15:16:13;5.88;;;1.83;;
70010;SDS011;59543;37.950;-122.338;2022-12-07T15:18:42;4.43;;;1.90;;
70010;SDS011;59543;37.950;-122.338;2022-12-07T15:23:39;0.85;;;0.47;;
70010;SDS011;59543;37.950;-122.338;2022-12-07T15:26:06;6.40;;;2.00;;
70010;SDS011;59543;37.950;-122.338;2022-12-07T15:28:33;0.70;;;0.60;;
70010;SDS011;59543;37.950;-122.338;2022-12-07T15:30:59;3.53;;;2.13;;
70010;SDS011;59543;37.950;-122.338;2022-12-07T15:35:51;5.70;;;2.40;;
70010;SDS011;59543;37.950;-122.338;2022-12-07T15:38:18;7.10;;;2.70;;
70010;SDS011;59543;37.950;-122.338;2022-12-07T15:43:13;10.38;;;2.80;;
70010;SDS011;59543;37.950;-122.338;2022-12-07T15:45:57;8.73;;;2.30;;
70010;SDS011;59543;37.950;-122.338;2022-12-07T15:48:24;4.63;;;2.50;;
70010;SDS011;59543;37.950;-122.338;2022-12-07T15:50:51;4.45;;;2.28;;
70010;SDS011;59543;37.950;-122.338;2022-12-07T15:53:17;5.95;;;2.60;;
70010;SDS011;59543;37.950;-122.338;2022-12-07T15:58:09;5.93;;;2.45;;
70010;SDS011;59543;37.950;-122.338;2022-12-07T16:03:01;5.50;;;2.83;;
70010;SDS011;59543;37.950;-122.338;2022-12-07T16:07:53;12.25;;;3.95;;
70010;SDS011;59543;37.950;-122.338;2022-12-07T16:12:45;74.63;;;14.32;;
70010;SDS011;59543;37.950;-122.338;2022-12-07T16:17:37;73.07;;;17.65;;
70010;SDS011;59543;37.950;-122.338;2022-12-07T16:20:03;14.43;;;4.40;;
70010;SDS011;59543;37.950;-122.338;2022-12-07T16:22:30;9.73;;;3.78;;
70010;SDS011;59543;37.950;-122.338;2022-12-07T16:27:22;67.25;;;19.13;;
70010;SDS011;59543;37.950;-122.338;2022-12-07T16:32:14;84.45;;;22.52;;
70010;SDS011;59543;37.950;-122.338;2022-12-07T16:37:06;81.68;;;24.00;;
70010;SDS011;59543;37.950;-122.338;2022-12-07T16:39:33;122.38;;;25.27;;
70010;SDS011;59543;37.950;-122.338;2022-12-07T16:41:59;52.80;;;24.45;;
70010;SDS011;59543;37.950;-122.338;2022-12-07T16:44:26;98.88;;;27.58;;
70010;SDS011;59543;37.950;-122.338;2022-12-07T16:46:54;56.92;;;27.23;;
70010;SDS011;59543;37.950;-122.338;2022-12-07T16:49:21;49.05;;;23.55;;
70010;SDS011;59543;37.950;-122.338;2022-12-07T16:51:49;33.42;;;18.15;;
70010;SDS011;59543;37.950;-122.338;2022-12-07T16:54:16;40.30;;;20.63;;
70010;SDS011;59543;37.950;-122.338;2022-12-07T16:59:09;39.00;;;20.13;;
70010;SDS011;59543;37.950;-122.338;2022-12-07T17:01:35;33.25;;;21.38;;
70010;SDS011;59543;37.950;-122.338;2022-12-07T17:04:01;38.17;;;22.38;;
70010;SDS011;59543;37.950;-122.338;2022-12-07T17:06:31;41.92;;;23.73;;
70010;SDS011;59543;37.950;-122.338;2022-12-07T17:08:58;44.65;;;25.05;;
70010;SDS011;59543;37.950;-122.338;2022-12-07T17:11:28;37.25;;;24.35;;
70010;SDS011;59543;37.950;-122.338;2022-12-07T17:13:58;38.03;;;23.23;;
70010;SDS011;59543;37.950;-122.338;2022-12-07T17:16:42;42.67;;;24.45;;
70010;SDS011;59543;37.950;-122.338;2022-12-07T17:19:13;39.40;;;23.25;;
70010;SDS011;59543;37.950;-122.338;2022-12-07T17:21:40;42.40;;;24.17;;
70010;SDS011;59543;37.950;-122.338;2022-12-07T17:24:08;45.25;;;25.13;;
70010;SDS011;59543;37.950;-122.338;2022-12-07T17:26:36;38.65;;;22.95;;
70010;SDS011;59543;37.950;-122.338;2022-12-07T17:29:03;41.15;;;20.60;;
70010;SDS011;59543;37.950;-122.338;2022-12-07T17:31:31;34.65;;;19.17;;
70010;SDS011;59543;37.950;-122.338;2022-12-07T17:33:57;32.13;;;17.95;;
70010;SDS011;59543;37.950;-122.338;2022-12-07T17:36:25;31.27;;;17.35;;
70010;SDS011;59543;37.950;-122.338;2022-12-07T17:38:52;23.08;;;15.18;;
70010;SDS011;59543;37.950;-122.338;2022-12-07T17:41:20;25.67;;;16.00;;
70010;SDS011;59543;37.950;-122.338;2022-12-07T17:44:07;23.48;;;14.57;;
70010;SDS011;59543;37.950;-122.338;2022-12-07T17:46:36;20.05;;;13.85;;
70010;SDS011;59543;37.950;-122.338;2022-12-07T17:49:03;20.95;;;13.88;;
70010;SDS011;59543;37.950;-122.338;2022-12-07T17:51:30;18.17;;;12.18;;
70010;SDS011;59543;37.950;-122.338;2022-12-07T17:54:15;15.95;;;11.77;;
70010;SDS011;59543;37.950;-122.338;2022-12-07T17:56:43;23.20;;;12.63;;
70010;SDS011;59543;37.950;-122.338;2022-12-07T17:59:09;22.95;;;11.88;;
70010;SDS011;59543;37.950;-122.338;2022-12-07T18:01:36;19.38;;;11.68;;
70010;SDS011;59543;37.950;-122.338;2022-12-07T18:04:03;18.70;;;12.77;;
70010;SDS011;59543;37.950;-122.338;2022-12-07T18:06:30;21.88;;;11.35;;
70010;SDS011;59543;37.950;-122.338;2022-12-07T18:08:57;23.92;;;11.10;;
70010;SDS011;59543;37.950;-122.338;2022-12-07T18:11:24;19.35;;;11.23;;
70010;SDS011;59543;37.950;-122.338;2022-12-07T18:13:51;16.55;;;10.32;;
70010;SDS011;59543;37.950;-122.338;2022-12-07T18:16:19;21.08;;;11.20;;
70010;SDS011;59543;37.950;-122.338;2022-12-07T18:18:48;22.98;;;10.50;;
70010;SDS011;59543;37.950;-122.338;2022-12-07T18:21:16;14.40;;;9.35;;
70010;SDS011;59543;37.950;-122.338;2022-12-07T18:23:44;17.17;;;8.75;;
70010;SDS011;59543;37.950;-122.338;2022-12-07T18:26:13;14.35;;;8.82;;
70010;SDS011;59543;37.950;-122.338;2022-12-07T18:28:41;15.15;;;9.25;;
70010;SDS011;59543;37.950;-122.338;2022-12-07T18:31:08;16.42;;;8.13;;
70010;SDS011;59543;37.950;-122.338;2022-12-07T18:33:35;17.23;;;9.70;;
70010;SDS011;59543;37.950;-122.338;2022-12-07T18:36:02;16.98;;;8.88;;
70010;SDS011;59543;37.950;-122.338;2022-12-07T18:38:29;15.40;;;9.38;;
70010;SDS011;59543;37.950;-122.338;2022-12-07T18:40:55;18.10;;;9.38;;
70010;SDS011;59543;37.950;-122.338;2022-12-07T18:43:22;15.02;;;8.75;;
70010;SDS011;59543;37.950;-122.338;2022-12-07T18:45:52;14.45;;;8.35;;
70010;SDS011;59543;37.950;-122.338;2022-12-07T18:48:19;13.55;;;8.45;;